Crossroads, New Mexico
Current Conditions -  °F | °C
As of 1:35 AM on Sunday 21 Dec 2014 (Local Time) from KHOB Reporting Station
Moderate Fog Moderate Fog  
Wind Chill: 34°   Ceiling: 100
Heat Index: 39°   Visibility: 0.5mi
Dew Point: 39°   Wind: 8mph
Humidity: 100%   Direction: 200°SSW
Pressure: 30.01"   Gusts: NA
Location:  33.51°N, 103.34°W
Report Text: KHOB 210835Z AUTO 20007KT 1/2SM FG OVC001 04/04 A3001 RMK AO2
Loading
Personal Weather Stations






























Interactive Weather Map New forecast layout! Learn more

10-Day Weather Forecast

Advertisements
Track Severe Weather on mobile